This is the latest recevied weather packets stored in our database for station/object WX7FGZ-7. If no packets are shown the sender has not sent any weather packets the latest 10 day(s).
| Time | Temp. | Humidity | Pressure | Rain* | Wind** | Luminosity | Snow |
|---|---|---|---|---|---|---|---|
| 1777882963 | 12.78° C | 57% | 1014.2 hPa | 0 mm | - | - | - |
| 1777882952 | 12.78° C | 56% | 1013.9 hPa | 0 mm | - | - | - |
| 1777882932 | 12.78° C | 57% | 1014.2 hPa | 0 mm | - | - | - |
| 1777882641 | 12.78° C | 56% | 1013.9 hPa | 0 mm | - | - | - |
| 1777882339 | 13.33° C | 55% | 1013.8 hPa | 0 mm | - | - | - |
| 1777882141 | 13.33° C | 56% | 1013.9 hPa | 0 mm | - | - | - |
| 1777882041 | 13.33° C | 56% | 1013.9 hPa | 0 mm | - | - | - |
| 1777881826 | 14.44° C | 50% | 1014.4 hPa | 0 mm | - | - | - |
| 1777881819 | 14.44° C | 50% | 1014.4 hPa | 0 mm | - | - | - |
| 1777881812 | 15° C | 50% | 1014.5 hPa | 0 mm | - | - | - |
| 1777881804 | 15° C | 49% | 1014.5 hPa | 0 mm | - | - | - |
| 1777881738 | 13.33° C | 55% | 1013.9 hPa | 0 mm | - | - | - |
| 1777881710 | 13.33° C | 55% | 1013.9 hPa | 0 mm | - | - | - |
| 1777881432 | 13.33° C | 55% | 1013.9 hPa | 0 mm | - | - | - |
| 1777881401 | 13.33° C | 55% | 1014.2 hPa | 0 mm | - | - | - |
| 1777881137 | 13.33° C | 55% | 1014.2 hPa | 0 mm | - | - | - |
| 1777880841 | 13.33° C | 55% | 1014.2 hPa | 0 mm | - | - | - |
| 1777880536 | 13.33° C | 55% | 1014.2 hPa | 0 mm | - | - | - |
| 1777880490 | 13.33° C | 55% | 1014.2 hPa | 0 mm | - | - | - |
| 1777880233 | 13.33° C | 55% | 1014.2 hPa | 0 mm | - | - | - |
| 1777879938 | 13.33° C | 55% | 1014.3 hPa | 0 mm | - | - | - |
| 1777879641 | 13.33° C | 54% | 1014.3 hPa | 0 mm | - | - | - |
| 1777879516 | 13.89° C | 54% | 1014.4 hPa | 0 mm | - | - | - |
| 1777879332 | 13.89° C | 54% | 1014.4 hPa | 0 mm | - | - | - |
| 1777879014 | 13.89° C | 52% | 1014.3 hPa | 0 mm | - | - | - |
* Rain latest hour (hover to see other rain measurements)
** Current wind speed in m/s (hover to see current wind gust speed)